Time;durP1;ratioP1;P1;durP2;ratioP2;P2;SDS_P1;SDS_P2;PMS_P1;PMS_P2;Temp;Humidity;BMP_temperature;BMP_pressure;BME280_temperature;BME280_humidity;BME280_pressure;Samples;Min_cycle;Max_cycle;Signal;HPM_P1;HPM_P2
2022/11/18 00:01:13;;;;;;;0.80;0.80;;;8.40;99.90;;;;;;6137920;23;20584;-72
2022/11/18 00:03:42;;;;;;;0.80;0.50;;;8.40;99.90;;;;;;6136397;23;20195;-72
2022/11/18 00:06:11;;;;;;;0.70;0.60;;;8.40;99.90;;;;;;6146087;23;20201;-73
2022/11/18 00:08:38;;;;;;;0.77;0.75;;;8.40;99.90;;;;;;6142549;23;20337;-72
2022/11/18 00:11:07;;;;;;;1.10;0.75;;;8.40;99.90;;;;;;6130101;23;20300;-73
2022/11/18 00:16:21;;;;;;;0.70;0.60;;;8.40;99.90;;;;;;6137907;23;20247;-73
2022/11/18 00:18:48;;;;;;;1.10;0.90;;;8.50;99.90;;;;;;6145115;23;20254;-73
2022/11/18 00:21:15;;;;;;;1.50;0.80;;;8.50;99.90;;;;;;6134349;23;20193;-73
2022/11/18 00:23:43;;;;;;;1.80;0.77;;;8.50;99.90;;;;;;6133268;23;20277;-73
2022/11/18 00:26:13;;;;;;;1.25;0.80;;;8.50;99.90;;;;;;6139431;23;20219;-72
2022/11/18 00:28:41;;;;;;;0.88;0.73;;;8.50;99.90;;;;;;6136121;23;20285;-73
2022/11/18 00:31:10;;;;;;;0.90;0.80;;;8.50;99.90;;;;;;6133080;23;20220;-72
2022/11/18 00:33:40;;;;;;;1.65;1.00;;;8.50;99.90;;;;;;6147180;23;20199;-72
2022/11/18 00:36:10;;;;;;;1.08;0.98;;;8.50;99.90;;;;;;6145307;23;20277;-72
2022/11/18 00:38:37;;;;;;;1.30;1.20;;;8.50;99.90;;;;;;6147353;23;20316;-72
2022/11/18 00:41:07;;;;;;;1.35;1.17;;;8.50;99.90;;;;;;6144192;23;20382;-72
2022/11/18 00:43:33;;;;;;;2.97;1.20;;;8.50;99.90;;;;;;6146194;23;20217;-72
2022/11/18 00:46:01;;;;;;;2.03;1.20;;;8.50;99.90;;;;;;6134676;23;20275;-72
2022/11/18 00:48:28;;;;;;;1.10;1.00;;;8.50;99.90;;;;;;6138261;23;20209;-73
2022/11/18 00:50:58;;;;;;;1.42;0.90;;;8.40;99.90;;;;;;6136373;23;20270;-72
2022/11/18 00:53:27;;;;;;;1.00;0.80;;;8.40;99.90;;;;;;6141674;23;20207;-72
2022/11/18 00:55:54;;;;;;;0.93;0.90;;;8.40;99.90;;;;;;6118914;23;20276;-72
2022/11/18 00:58:21;;;;;;;1.00;0.77;;;8.40;99.90;;;;;;6143218;23;20638;-73
2022/11/18 01:00:52;;;;;;;0.90;0.80;;;8.40;99.90;;;;;;6138176;23;20672;-72
2022/11/18 01:03:19;;;;;;;0.80;0.73;;;8.40;99.90;;;;;;6134680;23;20228;-72
2022/11/18 01:05:48;;;;;;;1.60;0.80;;;8.40;99.90;;;;;;6136484;23;20207;-73
2022/11/18 01:08:17;;;;;;;1.20;1.10;;;8.40;99.90;;;;;;6132176;23;20683;-73
2022/11/18 01:10:44;;;;;;;1.15;0.80;;;8.40;99.90;;;;;;6126115;23;20237;-72
2022/11/18 01:13:19;;;;;;;1.05;0.75;;;8.40;99.90;;;;;;6149623;23;20263;-72
2022/11/18 01:15:48;;;;;;;1.15;0.90;;;8.30;99.90;;;;;;6148347;23;20728;-72
2022/11/18 01:18:15;;;;;;;1.67;0.80;;;8.30;99.90;;;;;;6132421;23;20261;-72
2022/11/18 01:20:43;;;;;;;2.38;1.00;;;8.30;99.90;;;;;;6127020;23;20281;-72
2022/11/18 01:23:10;;;;;;;2.55;0.70;;;8.40;99.90;;;;;;6146809;23;20522;-73
2022/11/18 01:25:40;;;;;;;1.58;0.80;;;8.30;99.90;;;;;;6131074;23;20199;-73
2022/11/18 01:28:07;;;;;;;2.45;0.85;;;8.30;99.90;;;;;;6148522;23;20628;-72
2022/11/18 01:30:35;;;;;;;1.13;0.80;;;8.30;99.90;;;;;;6103958;23;20212;-72
2022/11/18 01:33:02;;;;;;;0.98;0.70;;;8.30;99.90;;;;;;6144420;23;20219;-73
2022/11/18 01:35:29;;;;;;;1.42;0.93;;;8.30;99.90;;;;;;6145306;23;20682;-73
2022/11/18 01:37:57;;;;;;;1.05;0.90;;;8.30;99.90;;;;;;6141924;23;20200;-73
2022/11/18 01:40:28;;;;;;;1.02;0.90;;;8.30;99.90;;;;;;6124768;23;20243;-73
2022/11/18 01:42:57;;;;;;;1.40;0.88;;;8.40;99.90;;;;;;6129147;23;20279;-73
2022/11/18 01:45:29;;;;;;;1.63;0.90;;;8.40;99.90;;;;;;6125811;23;20258;-73
2022/11/18 01:48:02;;;;;;;1.73;0.85;;;8.30;99.90;;;;;;6144837;23;20194;-73
2022/11/18 01:50:30;;;;;;;1.48;0.85;;;8.30;99.90;;;;;;6144263;23;20273;-72
2022/11/18 01:53:03;;;;;;;0.85;0.85;;;8.30;99.90;;;;;;6148317;23;20200;-73
2022/11/18 01:55:34;;;;;;;1.30;0.98;;;8.30;99.90;;;;;;6121648;23;20624;-73
2022/11/18 01:58:07;;;;;;;3.30;0.95;;;8.30;99.90;;;;;;6136486;23;20658;-72
2022/11/18 02:00:35;;;;;;;1.63;0.90;;;8.30;99.90;;;;;;6143015;23;20203;-72
2022/11/18 02:03:03;;;;;;;1.75;1.17;;;8.30;99.90;;;;;;6146003;23;20205;-72
2022/11/18 02:05:32;;;;;;;1.45;1.20;;;8.30;99.90;;;;;;6142849;23;20195;-72
2022/11/18 02:08:01;;;;;;;1.10;1.00;;;8.30;99.90;;;;;;6145164;23;20200;-72
2022/11/18 02:10:29;;;;;;;4.43;1.00;;;8.30;99.90;;;;;;6133814;23;20216;-72
2022/11/18 02:12:57;;;;;;;2.42;1.15;;;8.30;99.90;;;;;;6144107;23;20213;-72
2022/11/18 02:15:41;;;;;;;1.17;0.90;;;8.30;99.90;;;;;;6139580;23;20281;-73
2022/11/18 02:18:14;;;;;;;1.55;1.30;;;8.30;99.90;;;;;;6128624;23;20685;-72
2022/11/18 02:20:43;;;;;;;1.60;1.30;;;8.30;99.90;;;;;;6141312;23;20203;-72
2022/11/18 02:23:41;;;;;;;2.05;1.40;;;8.30;99.90;;;;;;6110771;23;20543;-73
2022/11/18 02:26:37;;;;;;;1.80;1.00;;;8.30;99.90;;;;;;6133635;23;20249;-73
2022/11/18 02:29:09;;;;;;;2.28;1.10;;;8.30;99.90;;;;;;6093599;23;20926;-73
2022/11/18 02:31:46;;;;;;;1.20;0.80;;;8.30;99.90;;;;;;6143799;23;20220;-73
2022/11/18 02:34:21;;;;;;;0.98;0.70;;;8.30;99.90;;;;;;6148670;23;20197;-72
2022/11/18 02:36:55;;;;;;;1.35;0.77;;;8.30;99.90;;;;;;6119165;23;20301;-73
2022/11/18 02:39:29;;;;;;;2.95;0.82;;;8.30;99.90;;;;;;6136745;23;20238;-73
2022/11/18 02:41:59;;;;;;;1.75;0.70;;;8.20;99.90;;;;;;6129478;23;20685;-72
2022/11/18 02:44:30;;;;;;;0.95;0.60;;;8.20;99.90;;;;;;6143026;23;20253;-73
2022/11/18 02:47:02;;;;;;;1.30;0.70;;;8.20;99.90;;;;;;6145020;23;20199;-73
2022/11/18 02:49:35;;;;;;;1.20;1.05;;;8.20;99.90;;;;;;6117714;23;20197;-73
2022/11/18 02:52:04;;;;;;;2.58;0.60;;;8.20;99.90;;;;;;6137335;23;20207;-72
2022/11/18 02:54:34;;;;;;;1.23;0.60;;;8.20;99.90;;;;;;6144459;23;20194;-73
2022/11/18 02:57:02;;;;;;;0.60;0.60;;;8.20;99.90;;;;;;6143829;23;20248;-73
2022/11/18 02:59:32;;;;;;;1.00;0.75;;;8.20;99.90;;;;;;6139054;23;20209;-73
2022/11/18 03:01:59;;;;;;;1.00;0.70;;;8.20;99.90;;;;;;6146379;23;20258;-72
2022/11/18 03:04:26;;;;;;;1.70;0.82;;;8.20;99.90;;;;;;6144167;23;20289;-73
2022/11/18 03:07:02;;;;;;;2.13;0.80;;;8.20;99.90;;;;;;6142548;23;20197;-73
2022/11/18 03:09:33;;;;;;;1.50;0.90;;;8.20;99.90;;;;;;6147139;23;20230;-73
2022/11/18 03:12:16;;;;;;;1.13;0.80;;;8.20;99.90;;;;;;6138062;23;20656;-73
2022/11/18 03:14:53;;;;;;;1.02;0.80;;;8.20;99.90;;;;;;6145413;23;20200;-73
2022/11/18 03:17:30;;;;;;;1.27;0.82;;;8.20;99.90;;;;;;6127504;23;20202;-73
2022/11/18 03:20:09;;;;;;;3.10;0.77;;;8.20;99.90;;;;;;6146002;23;20596;-73
2022/11/18 03:22:42;;;;;;;1.13;0.60;;;8.20;99.90;;;;;;6135387;23;20549;-73
2022/11/18 03:25:13;;;;;;;1.00;0.63;;;8.20;99.90;;;;;;6144731;23;20209;-73
2022/11/18 03:27:48;;;;;;;1.65;0.93;;;8.20;99.90;;;;;;6141048;23;20198;-73
2022/11/18 03:30:20;;;;;;;0.85;0.68;;;8.20;99.90;;;;;;6141745;23;20657;-73
2022/11/18 03:32:53;;;;;;;2.03;0.80;;;8.20;99.90;;;;;;6142951;23;20297;-73
2022/11/18 03:35:25;;;;;;;1.83;0.90;;;8.30;99.90;;;;;;6136768;23;20197;-73
2022/11/18 03:37:57;;;;;;;1.30;0.85;;;8.20;99.90;;;;;;6141309;23;20597;-73
2022/11/18 03:40:28;;;;;;;0.95;0.70;;;8.30;99.90;;;;;;6134697;23;21149;-73
2022/11/18 03:43:02;;;;;;;1.20;0.70;;;8.30;99.90;;;;;;6143028;23;20554;-73
2022/11/18 03:45:35;;;;;;;1.40;0.75;;;8.20;99.90;;;;;;6131395;23;20200;-73
2022/11/18 03:48:10;;;;;;;1.20;0.70;;;8.30;99.90;;;;;;6148073;23;20301;-73
2022/11/18 03:50:42;;;;;;;3.00;0.80;;;8.20;99.90;;;;;;6138558;23;20215;-72
2022/11/18 03:53:10;;;;;;;0.60;0.50;;;8.20;99.90;;;;;;6134422;23;20557;-73
2022/11/18 03:55:41;;;;;;;1.55;0.70;;;8.10;99.90;;;;;;6143278;23;20200;-72
2022/11/18 03:58:15;;;;;;;1.13;0.60;;;8.10;99.90;;;;;;6143584;23;20287;-72
2022/11/18 04:00:48;;;;;;;1.80;0.70;;;8.10;99.90;;;;;;6128098;23;20192;-73
2022/11/18 04:03:16;;;;;;;1.17;0.70;;;8.00;99.90;;;;;;6136702;23;20191;-73
2022/11/18 04:05:44;;;;;;;1.08;0.60;;;8.00;99.90;;;;;;6143199;23;20224;-72
2022/11/18 04:08:17;;;;;;;2.55;0.70;;;8.00;99.90;;;;;;6141556;23;20195;-72
2022/11/18 04:10:49;;;;;;;2.25;0.60;;;7.90;99.90;;;;;;6134778;23;20212;-72
2022/11/18 04:13:22;;;;;;;1.77;0.60;;;7.90;99.90;;;;;;6137298;23;20195;-72
2022/11/18 04:15:51;;;;;;;1.83;0.60;;;7.80;99.90;;;;;;6140963;23;20838;-73
2022/11/18 04:18:18;;;;;;;3.17;0.65;;;7.80;99.90;;;;;;6145616;23;20305;-73
2022/11/18 04:20:44;;;;;;;1.45;0.63;;;7.90;99.90;;;;;;6141480;23;20204;-73
2022/11/18 04:23:12;;;;;;;1.65;0.65;;;7.90;99.90;;;;;;6147348;23;20540;-73
2022/11/18 04:25:39;;;;;;;1.65;0.60;;;7.90;99.90;;;;;;6143772;23;20200;-73
2022/11/18 04:28:06;;;;;;;1.20;0.60;;;7.80;99.90;;;;;;6148528;23;20613;-73
2022/11/18 04:30:35;;;;;;;3.70;0.65;;;7.80;99.90;;;;;;6132556;23;20195;-72
2022/11/18 04:33:04;;;;;;;0.70;0.50;;;7.80;99.90;;;;;;6145115;23;20225;-73
2022/11/18 04:35:31;;;;;;;0.88;0.57;;;7.80;99.90;;;;;;6128859;23;20256;-73
2022/11/18 04:37:58;;;;;;;1.05;0.70;;;7.70;99.90;;;;;;6131518;23;20275;-72
2022/11/18 04:40:25;;;;;;;0.80;0.50;;;7.70;99.90;;;;;;6145945;23;20191;-73
2022/11/18 04:42:52;;;;;;;0.85;0.55;;;7.70;99.90;;;;;;6125660;23;20191;-73
2022/11/18 04:45:19;;;;;;;1.20;0.80;;;7.60;99.90;;;;;;6143219;23;20270;-73
2022/11/18 04:47:46;;;;;;;0.80;0.63;;;7.60;99.90;;;;;;6130353;23;20606;-73
2022/11/18 04:50:15;;;;;;;1.20;0.70;;;7.60;99.90;;;;;;6138000;23;20218;-72
2022/11/18 04:52:42;;;;;;;0.65;0.55;;;7.60;99.90;;;;;;6143513;23;20227;-73
2022/11/18 04:55:09;;;;;;;1.48;1.00;;;7.60;99.90;;;;;;6144745;23;20196;-72
2022/11/18 04:57:37;;;;;;;0.70;0.60;;;7.60;99.90;;;;;;6147016;23;20191;-73
2022/11/18 05:00:06;;;;;;;0.80;0.50;;;7.60;99.90;;;;;;6112138;23;20257;-72
2022/11/18 05:02:33;;;;;;;0.60;0.60;;;7.60;99.90;;;;;;6144862;23;20194;-72
2022/11/18 05:05:00;;;;;;;0.60;0.50;;;7.50;99.90;;;;;;6140321;23;20204;-72
2022/11/18 05:07:29;;;;;;;0.60;0.60;;;7.50;99.90;;;;;;6128043;23;20199;-72
2022/11/18 05:09:56;;;;;;;0.80;0.65;;;7.50;99.90;;;;;;6142924;23;20683;-72
2022/11/18 05:15:09;;;;;;;1.55;1.02;;;7.50;99.90;;;;;;6144875;23;20220;-72
2022/11/18 05:17:36;;;;;;;1.40;0.88;;;7.50;99.90;;;;;;6144513;23;20674;-72
2022/11/18 05:20:03;;;;;;;1.35;0.70;;;7.50;99.90;;;;;;6141821;23;20202;-73
2022/11/18 05:22:32;;;;;;;1.48;0.80;;;7.60;99.90;;;;;;6146040;23;20199;-72
2022/11/18 05:24:59;;;;;;;1.90;0.80;;;7.60;99.90;;;;;;6134297;23;20270;-72
2022/11/18 05:27:27;;;;;;;1.15;0.70;;;7.50;99.90;;;;;;6143940;23;20713;-72
2022/11/18 05:29:54;;;;;;;0.70;0.60;;;7.50;99.90;;;;;;6120052;23;20291;-73
2022/11/18 05:32:22;;;;;;;1.08;0.60;;;7.50;99.90;;;;;;6125238;23;20291;-72
2022/11/18 05:34:49;;;;;;;0.60;0.50;;;7.50;99.90;;;;;;6112267;23;20631;-73
2022/11/18 05:37:16;;;;;;;1.15;0.70;;;7.40;99.90;;;;;;6144916;23;20211;-73
2022/11/18 05:39:44;;;;;;;0.60;0.57;;;7.50;99.90;;;;;;6141252;23;20248;-72
2022/11/18 05:44:58;;;;;;;0.65;0.60;;;7.40;99.90;;;;;;6140668;23;20187;-72
2022/11/18 05:47:25;;;;;;;0.98;0.60;;;7.40;99.90;;;;;;6139803;23;20298;-73
2022/11/18 05:49:53;;;;;;;1.20;0.80;;;7.40;99.90;;;;;;6127796;23;20196;-73
2022/11/18 05:52:20;;;;;;;1.10;0.82;;;7.40;99.90;;;;;;6126817;23;20226;-73
2022/11/18 05:54:50;;;;;;;1.60;0.90;;;7.40;99.90;;;;;;6141744;23;20242;-72
2022/11/18 05:57:17;;;;;;;1.58;0.80;;;7.40;99.90;;;;;;6145661;23;20190;-73
2022/11/18 05:59:44;;;;;;;0.80;0.77;;;7.40;99.90;;;;;;6137254;23;20230;-72
2022/11/18 06:02:17;;;;;;;0.77;0.50;;;7.40;99.90;;;;;;6143121;23;20236;-73
2022/11/18 06:04:48;;;;;;;0.88;0.60;;;7.40;99.90;;;;;;6117156;23;20201;-72
2022/11/18 06:07:19;;;;;;;1.60;0.73;;;7.40;99.90;;;;;;6124803;23;20279;-72
2022/11/18 06:09:52;;;;;;;0.90;0.70;;;7.40;99.90;;;;;;6113522;23;20202;-72
2022/11/18 06:12:23;;;;;;;1.00;0.75;;;7.40;99.90;;;;;;6132819;23;20806;-72
2022/11/18 06:14:54;;;;;;;0.70;0.60;;;7.50;99.90;;;;;;6126367;23;20237;-72
2022/11/18 06:17:27;;;;;;;0.80;0.50;;;7.40;99.90;;;;;;6131384;23;20278;-73
2022/11/18 06:19:54;;;;;;;0.80;0.70;;;7.40;99.90;;;;;;6135759;23;20502;-73
2022/11/18 06:22:21;;;;;;;0.70;0.60;;;7.40;99.90;;;;;;6134919;23;20197;-73
2022/11/18 06:24:50;;;;;;;0.95;0.63;;;7.40;99.90;;;;;;6103961;23;20814;-76
2022/11/18 06:27:20;;;;;;;0.60;0.60;;;7.40;99.90;;;;;;6131034;23;20183;-76
2022/11/18 06:29:47;;;;;;;0.90;0.70;;;7.50;99.90;;;;;;6132205;23;20242;-76
2022/11/18 06:32:15;;;;;;;0.70;0.70;;;7.50;99.90;;;;;;6132104;23;20286;-73
2022/11/18 06:34:42;;;;;;;0.90;0.80;;;7.50;99.90;;;;;;6139892;23;20274;-73
2022/11/18 06:37:13;;;;;;;0.70;0.60;;;7.50;99.90;;;;;;6132394;23;20417;-73
2022/11/18 06:39:40;;;;;;;1.77;0.80;;;7.50;99.90;;;;;;6133542;23;20578;-73
2022/11/18 06:42:09;;;;;;;0.70;0.63;;;7.50;99.90;;;;;;6141814;23;20239;-73
2022/11/18 06:44:35;;;;;;;0.60;0.60;;;7.50;99.90;;;;;;6141817;23;20696;-73
2022/11/18 06:47:04;;;;;;;1.80;0.80;;;7.60;99.90;;;;;;6143178;23;20190;-73
2022/11/18 06:49:31;;;;;;;0.73;0.68;;;7.60;99.90;;;;;;6141641;23;20238;-77
2022/11/18 06:51:58;;;;;;;2.95;0.60;;;7.60;99.90;;;;;;6134104;23;20212;-73
2022/11/18 06:54:26;;;;;;;1.10;0.75;;;7.60;99.90;;;;;;6110136;23;20188;-73
2022/11/18 06:56:54;;;;;;;1.35;0.95;;;7.60;99.90;;;;;;6144182;23;20265;-73
2022/11/18 06:59:23;;;;;;;1.48;0.80;;;7.60;99.90;;;;;;6135695;23;20182;-74
2022/11/18 07:01:51;;;;;;;1.00;0.80;;;7.60;99.90;;;;;;6135614;23;20643;-74
2022/11/18 07:04:19;;;;;;;0.93;0.70;;;7.60;99.90;;;;;;6144481;23;20655;-74
2022/11/18 07:06:46;;;;;;;1.35;0.90;;;7.60;99.90;;;;;;6147454;23;20269;-74
2022/11/18 07:09:13;;;;;;;0.90;0.88;;;7.60;99.90;;;;;;6118752;23;20199;-73
2022/11/18 07:11:40;;;;;;;1.00;0.90;;;7.60;99.90;;;;;;6147876;23;20214;-74
2022/11/18 07:14:08;;;;;;;1.20;0.77;;;7.60;99.90;;;;;;6122605;23;20230;-74
2022/11/18 07:16:37;;;;;;;1.00;0.90;;;7.60;99.90;;;;;;6131182;23;20200;-74
2022/11/18 07:19:10;;;;;;;4.20;0.80;;;7.70;99.90;;;;;;6132635;23;20249;-73
2022/11/18 07:21:37;;;;;;;1.25;0.70;;;7.70;99.90;;;;;;6140542;23;20603;-74
2022/11/18 07:24:07;;;;;;;0.98;0.90;;;7.70;99.90;;;;;;6142796;23;20221;-74
2022/11/18 07:26:34;;;;;;;1.70;0.70;;;7.80;99.90;;;;;;6143392;23;20264;-74
2022/11/18 07:29:02;;;;;;;1.10;0.98;;;7.80;99.90;;;;;;6148851;23;20634;-74
2022/11/18 07:31:30;;;;;;;1.70;0.70;;;7.80;99.90;;;;;;6133236;23;20193;-73
2022/11/18 07:33:58;;;;;;;1.55;0.80;;;7.80;99.90;;;;;;6147969;23;20193;-73
2022/11/18 07:36:27;;;;;;;1.85;1.00;;;7.80;99.90;;;;;;6132636;23;20281;-74
2022/11/18 07:38:55;;;;;;;1.45;1.33;;;7.90;99.90;;;;;;6140772;23;20225;-74
2022/11/18 07:41:25;;;;;;;1.30;1.20;;;7.90;99.90;;;;;;6105082;23;20271;-74
2022/11/18 07:43:54;;;;;;;1.08;0.98;;;7.90;99.90;;;;;;6123106;23;20215;-74
2022/11/18 07:46:23;;;;;;;1.20;1.00;;;8.00;99.90;;;;;;6138157;23;20194;-74
2022/11/18 07:48:52;;;;;;;1.20;1.10;;;8.00;99.90;;;;;;6131236;23;20561;-74
2022/11/18 07:51:22;;;;;;;1.00;0.73;;;8.10;99.90;;;;;;6130276;23;20231;-73
2022/11/18 07:53:50;;;;;;;0.80;0.80;;;8.00;99.90;;;;;;6129273;23;20247;-74
2022/11/18 07:56:17;;;;;;;0.95;0.93;;;8.00;99.90;;;;;;6134706;23;20593;-73
2022/11/18 07:58:45;;;;;;;1.67;1.00;;;8.00;99.90;;;;;;6137036;23;20211;-74
2022/11/18 08:01:14;;;;;;;1.25;1.00;;;8.00;99.90;;;;;;6136449;23;20247;-74
2022/11/18 08:03:41;;;;;;;1.38;1.13;;;8.00;99.90;;;;;;6147285;23;20219;-74
2022/11/18 08:06:10;;;;;;;1.98;1.30;;;8.00;99.90;;;;;;6146315;23;20293;-73
2022/11/18 08:08:39;;;;;;;0.85;0.80;;;8.00;99.90;;;;;;6135119;23;20600;-73
2022/11/18 08:11:08;;;;;;;1.42;1.10;;;8.10;99.90;;;;;;6133968;23;20215;-74
2022/11/18 08:13:37;;;;;;;1.00;0.90;;;8.10;99.90;;;;;;6124643;23;20217;-73
2022/11/18 08:16:12;;;;;;;1.10;1.00;;;8.10;99.90;;;;;;6133315;23;20189;-74
2022/11/18 08:18:39;;;;;;;1.33;0.80;;;8.10;99.90;;;;;;6136190;23;20763;-73
2022/11/18 08:21:07;;;;;;;1.70;0.80;;;8.10;99.90;;;;;;6142668;23;20220;-74
2022/11/18 08:23:34;;;;;;;1.15;1.05;;;8.10;99.90;;;;;;6143453;23;20181;-74
2022/11/18 08:26:05;;;;;;;0.93;0.73;;;8.10;99.90;;;;;;6138681;23;20212;-74
2022/11/18 08:28:32;;;;;;;1.27;1.17;;;8.10;99.90;;;;;;6134310;23;20188;-73
2022/11/18 08:31:00;;;;;;;1.27;0.90;;;8.20;99.90;;;;;;6139424;23;20284;-73
2022/11/18 08:33:27;;;;;;;1.20;0.93;;;8.20;99.90;;;;;;6141496;23;20199;-73
2022/11/18 08:35:55;;;;;;;1.00;0.90;;;8.20;99.90;;;;;;6135759;23;20707;-74
2022/11/18 08:38:22;;;;;;;0.90;0.85;;;8.20;99.90;;;;;;6141590;23;20196;-73
2022/11/18 08:40:49;;;;;;;1.00;0.80;;;8.20;99.90;;;;;;6129653;23;20515;-73
2022/11/18 08:43:18;;;;;;;1.17;1.08;;;8.20;99.90;;;;;;6124731;23;20194;-73
2022/11/18 08:45:45;;;;;;;1.98;1.13;;;8.20;99.90;;;;;;6125381;23;20221;-73
2022/11/18 08:48:12;;;;;;;1.98;1.27;;;8.30;99.90;;;;;;6132710;23;20282;-74
2022/11/18 08:50:39;;;;;;;1.85;1.15;;;8.40;99.90;;;;;;6135150;23;20194;-73
2022/11/18 08:53:06;;;;;;;1.15;1.05;;;8.40;99.90;;;;;;6139899;23;20292;-74
2022/11/18 08:55:33;;;;;;;0.80;0.70;;;8.40;99.90;;;;;;6133520;23;20187;-74
2022/11/18 08:58:00;;;;;;;1.95;1.15;;;8.50;99.90;;;;;;6142788;23;20192;-74
2022/11/18 09:00:29;;;;;;;0.98;0.80;;;8.60;99.90;;;;;;6144735;23;20209;-73
2022/11/18 09:02:56;;;;;;;2.42;1.20;;;8.60;99.90;;;;;;6140633;23;20205;-74
2022/11/18 09:05:24;;;;;;;1.08;0.88;;;8.60;99.90;;;;;;6141293;23;20214;-73
2022/11/18 09:07:51;;;;;;;2.20;0.95;;;8.60;99.90;;;;;;6144504;23;20201;-74
2022/11/18 09:10:18;;;;;;;2.53;1.08;;;8.70;99.90;;;;;;6142375;23;20230;-73
2022/11/18 09:12:46;;;;;;;1.08;0.98;;;8.70;99.90;;;;;;6135919;23;20261;-73
2022/11/18 09:15:14;;;;;;;1.00;0.90;;;8.70;99.90;;;;;;6143873;23;20196;-73
2022/11/18 09:17:43;;;;;;;1.20;1.00;;;8.70;99.90;;;;;;6138319;23;20266;-73
2022/11/18 09:20:11;;;;;;;1.00;0.90;;;8.70;99.90;;;;;;6134727;23;20268;-73
2022/11/18 09:22:39;;;;;;;1.40;1.00;;;8.80;99.90;;;;;;6120643;23;20198;-73
2022/11/18 09:25:07;;;;;;;4.40;0.95;;;8.80;99.90;;;;;;6140784;23;20191;-73
2022/11/18 09:27:34;;;;;;;1.23;0.90;;;8.80;99.90;;;;;;6141357;23;20275;-74
2022/11/18 09:30:01;;;;;;;1.13;0.80;;;8.90;99.90;;;;;;6133720;23;20199;-73
2022/11/18 09:32:28;;;;;;;0.90;0.80;;;8.90;99.90;;;;;;6141361;23;20211;-73
2022/11/18 09:34:57;;;;;;;0.80;0.80;;;8.90;99.90;;;;;;6145381;23;20270;-74
2022/11/18 09:37:24;;;;;;;2.28;0.88;;;8.90;99.90;;;;;;6146394;23;20222;-73
2022/11/18 09:39:51;;;;;;;1.02;0.90;;;9.00;99.90;;;;;;6140679;23;20183;-73
2022/11/18 09:42:39;;;;;;;1.17;1.00;;;8.90;99.90;;;;;;6133147;23;20538;-74
2022/11/18 09:45:17;;;;;;;1.05;0.75;;;8.90;99.90;;;;;;6147974;23;20262;-74
2022/11/18 09:47:45;;;;;;;0.90;0.90;;;8.90;99.90;;;;;;6149287;23;20496;-73
2022/11/18 09:50:16;;;;;;;2.13;1.00;;;8.90;99.90;;;;;;6138652;23;20190;-74
2022/11/18 09:52:50;;;;;;;1.50;1.05;;;8.90;99.90;;;;;;6147121;23;20284;-73
2022/11/18 09:55:18;;;;;;;1.23;1.10;;;8.90;99.90;;;;;;6137474;23;20200;-74
2022/11/18 09:57:47;;;;;;;1.92;1.23;;;8.80;99.90;;;;;;6140938;23;20587;-73
2022/11/18 10:00:16;;;;;;;1.45;1.05;;;8.80;99.90;;;;;;6130166;23;20246;-73
2022/11/18 10:02:52;;;;;;;1.35;0.90;;;8.80;99.90;;;;;;6132881;23;20260;-74
2022/11/18 10:05:23;;;;;;;1.65;1.00;;;8.80;99.90;;;;;;6133473;23;20574;-74
2022/11/18 10:08:04;;;;;;;1.40;1.17;;;8.70;99.90;;;;;;6132715;23;20298;-73
2022/11/18 10:10:44;;;;;;;1.70;1.27;;;8.70;99.90;;;;;;6115023;23;20221;-73
2022/11/18 10:13:21;;;;;;;1.80;1.30;;;8.90;99.90;;;;;;6138831;23;20231;-74
2022/11/18 10:15:55;;;;;;;1.42;1.33;;;8.70;99.90;;;;;;6120772;23;20197;-73
2022/11/18 10:18:28;;;;;;;1.48;1.38;;;8.70;99.90;;;;;;6136110;23;20219;-74
2022/11/18 10:21:03;;;;;;;1.55;1.45;;;8.70;99.90;;;;;;6146423;23;20218;-74
2022/11/18 10:23:35;;;;;;;1.60;1.50;;;8.70;99.90;;;;;;6143232;23;20259;-74
2022/11/18 10:26:02;;;;;;;1.80;1.70;;;8.80;99.90;;;;;;6140174;23;20269;-74
2022/11/18 10:28:30;;;;;;;1.77;1.63;;;8.80;99.90;;;;;;6138357;23;20237;-73
2022/11/18 10:31:04;;;;;;;1.55;1.45;;;8.90;99.90;;;;;;6143845;23;20285;-73
2022/11/18 10:33:32;;;;;;;2.72;1.65;;;9.00;99.90;;;;;;6133526;23;20667;-74
2022/11/18 10:36:14;;;;;;;2.85;1.50;;;9.00;99.90;;;;;;6138963;23;20224;-74
2022/11/18 10:38:43;;;;;;;1.98;1.50;;;9.10;99.90;;;;;;6118542;23;20585;-74
2022/11/18 10:41:13;;;;;;;2.65;2.00;;;9.10;99.90;;;;;;6137987;23;20220;-74
2022/11/18 10:43:49;;;;;;;1.75;1.65;;;9.20;99.90;;;;;;6156007;23;20267;-74
2022/11/18 10:46:19;;;;;;;2.47;1.83;;;9.20;99.90;;;;;;6137076;23;20238;-74
2022/11/18 10:48:46;;;;;;;2.05;1.75;;;9.30;99.90;;;;;;6132594;23;20185;-80
2022/11/18 10:51:24;;;;;;;1.90;1.70;;;9.30;99.90;;;;;;6135488;23;20208;-79
2022/11/18 10:53:52;;;;;;;2.75;1.85;;;9.30;99.90;;;;;;6138097;23;20300;-72
2022/11/18 10:56:20;;;;;;;1.50;1.35;;;9.40;99.90;;;;;;6104206;23;20191;-73
2022/11/18 10:58:51;;;;;;;2.13;1.55;;;9.40;99.90;;;;;;6082841;23;20223;-72
2022/11/18 11:01:23;;;;;;;2.58;1.63;;;9.50;99.90;;;;;;6134723;23;20190;-72
2022/11/18 11:03:59;;;;;;;2.85;1.65;;;9.60;99.90;;;;;;6142593;23;20190;-72
2022/11/18 11:06:33;;;;;;;1.80;1.70;;;9.60;99.90;;;;;;6125788;23;20186;-72
2022/11/18 11:09:04;;;;;;;1.83;1.70;;;9.60;99.90;;;;;;6121375;23;20259;-73
2022/11/18 11:11:35;;;;;;;2.40;1.90;;;9.60;99.90;;;;;;6127713;23;20198;-72
2022/11/18 11:14:22;;;;;;;2.08;1.85;;;9.60;99.90;;;;;;6126294;23;20525;-72
2022/11/18 11:16:58;;;;;;;2.03;1.83;;;9.60;99.90;;;;;;6131471;23;20193;-72
2022/11/18 11:19:31;;;;;;;2.15;1.95;;;9.50;99.90;;;;;;6122411;23;20491;-72
2022/11/18 11:22:00;;;;;;;5.38;1.85;;;9.50;99.90;;;;;;6142719;23;20275;-72
2022/11/18 11:24:28;;;;;;;3.70;1.90;;;9.60;99.90;;;;;;6138012;23;20643;-73
2022/11/18 11:27:06;;;;;;;1.80;1.67;;;9.50;99.90;;;;;;6138809;23;20185;-71
2022/11/18 11:29:48;;;;;;;1.92;1.50;;;9.40;99.90;;;;;;6132979;23;20187;-72
2022/11/18 11:32:19;;;;;;;1.90;1.50;;;9.40;99.90;;;;;;6142071;23;20193;-72
2022/11/18 11:34:52;;;;;;;2.55;1.45;;;9.40;99.90;;;;;;6145266;23;20242;-72
2022/11/18 11:37:28;;;;;;;1.83;1.40;;;9.50;99.90;;;;;;6133818;23;20189;-72
2022/11/18 11:40:11;;;;;;;1.70;1.45;;;9.60;99.90;;;;;;6136582;23;20297;-72
2022/11/18 11:42:48;;;;;;;1.60;1.40;;;9.70;99.90;;;;;;6126892;23;20195;-72
2022/11/18 11:45:25;;;;;;;1.45;1.30;;;9.80;99.90;;;;;;6143253;23;20650;-72
2022/11/18 11:48:14;;;;;;;3.42;1.40;;;10.00;99.90;;;;;;6143479;23;20600;-72
2022/11/18 11:50:53;;;;;;;1.40;1.30;;;10.30;99.90;;;;;;6141045;23;20274;-72
2022/11/18 11:53:46;;;;;;;1.23;1.08;;;10.60;99.90;;;;;;6143364;23;20745;-79
2022/11/18 11:56:21;;;;;;;1.20;1.08;;;10.90;99.90;;;;;;6143336;23;20262;-73
2022/11/18 11:59:14;;;;;;;1.70;1.20;;;10.80;99.90;;;;;;6138252;23;20727;-71
2022/11/18 12:01:54;;;;;;;1.50;1.17;;;10.80;99.90;;;;;;6138821;23;20194;-72
2022/11/18 12:04:34;;;;;;;1.40;1.10;;;10.60;99.90;;;;;;6141276;23;20182;-72
2022/11/18 12:07:05;;;;;;;1.42;1.33;;;10.50;99.90;;;;;;6132974;23;20193;-72
2022/11/18 12:09:46;;;;;;;3.08;1.50;;;10.50;99.90;;;;;;6144599;23;20261;-72
2022/11/18 12:12:35;;;;;;;1.73;1.10;;;10.50;99.90;;;;;;6140679;23;20928;-72
2022/11/18 12:15:15;;;;;;;1.88;1.70;;;10.50;99.90;;;;;;6139767;23;20257;-72
2022/11/18 12:17:52;;;;;;;1.83;1.35;;;10.50;99.90;;;;;;6142594;23;20698;-72
2022/11/18 12:20:37;;;;;;;1.92;1.10;;;10.60;99.90;;;;;;6143194;23;20274;-72
2022/11/18 12:23:13;;;;;;;2.20;1.10;;;10.70;99.90;;;;;;6141486;23;20312;-72
2022/11/18 12:26:03;;;;;;;1.73;1.00;;;10.90;99.90;;;;;;6140563;23;20191;-72
2022/11/18 12:28:34;;;;;;;1.23;1.13;;;10.90;99.90;;;;;;6135250;23;20195;-73
2022/11/18 12:31:26;;;;;;;1.50;0.90;;;10.90;99.90;;;;;;6125996;23;20203;-72
2022/11/18 12:33:55;;;;;;;3.85;1.42;;;11.00;99.90;;;;;;6144559;23;20626;-72
2022/11/18 12:36:27;;;;;;;1.65;1.10;;;10.90;99.90;;;;;;6144201;23;20269;-71
2022/11/18 12:38:55;;;;;;;3.20;0.90;;;10.90;99.90;;;;;;6132442;23;20194;-71
2022/11/18 12:44:46;;;;;;;1.40;1.20;;;10.90;99.90;;;;;;6135166;23;20770;-72
2022/11/18 12:47:15;;;;;;;1.60;1.38;;;10.80;99.90;;;;;;6146482;23;20250;-71
2022/11/18 12:50:13;;;;;;;2.33;1.40;;;10.70;99.90;;;;;;6135098;23;20243;-72
2022/11/18 12:52:52;;;;;;;2.47;1.50;;;10.70;99.90;;;;;;6142229;23;20202;-71
2022/11/18 12:55:32;;;;;;;2.85;1.40;;;10.60;99.90;;;;;;6143370;23;20286;-71
2022/11/18 12:58:00;;;;;;;3.80;1.80;;;10.60;99.90;;;;;;6124189;23;20193;-72
2022/11/18 13:00:50;;;;;;;2.58;1.90;;;10.50;99.90;;;;;;6128915;23;20625;-72
2022/11/18 13:03:31;;;;;;;2.88;1.60;;;10.50;99.90;;;;;;6136391;23;20191;-72
2022/11/18 13:06:02;;;;;;;2.13;1.45;;;10.40;99.90;;;;;;6141094;23;20373;-71
2022/11/18 13:08:30;;;;;;;3.40;1.50;;;10.30;99.90;;;;;;6130794;23;20568;-72
2022/11/18 13:17:50;;;;;;;2.05;1.50;;;10.10;99.90;;;;;;6146461;23;20229;-71
2022/11/18 13:19:26;;;;;;;2.10;1.55;;;10.00;99.90;;;;;;6135413;23;20670;-71
2022/11/18 13:24:45;;;;;;;2.65;1.33;;;9.90;99.90;;;;;;6135890;23;20183;-72
2022/11/18 13:27:23;;;;;;;4.38;1.35;;;9.90;99.90;;;;;;6107276;23;20202;-72
2022/11/18 13:30:00;;;;;;;2.20;1.33;;;10.10;99.90;;;;;;6149364;23;20189;-72
2022/11/18 13:32:29;;;;;;;1.73;1.30;;;10.10;99.90;;;;;;6136621;23;20186;-71
2022/11/18 13:34:58;;;;;;;1.70;1.20;;;10.20;99.90;;;;;;6130519;23;20668;-72